sensor_id;sensor_type;location;lat;lon;timestamp;P1;durP1;ratioP1;P2;durP2;ratioP2
26191;SDS011;13935;55.672;37.764;2022-10-16T00:00:53;17.95;;;7.15;;
26191;SDS011;13935;55.672;37.764;2022-10-16T00:02:16;14.23;;;6.75;;
26191;SDS011;13935;55.672;37.764;2022-10-16T00:03:39;14.77;;;6.93;;
26191;SDS011;13935;55.672;37.764;2022-10-16T00:05:01;14.02;;;6.88;;
26191;SDS011;13935;55.672;37.764;2022-10-16T00:06:25;11.40;;;6.57;;
26191;SDS011;13935;55.672;37.764;2022-10-16T00:07:51;10.60;;;6.47;;
26191;SDS011;13935;55.672;37.764;2022-10-16T00:09:13;16.27;;;6.55;;
26191;SDS011;13935;55.672;37.764;2022-10-16T00:10:38;12.68;;;7.20;;
26191;SDS011;13935;55.672;37.764;2022-10-16T00:12:05;14.85;;;6.65;;
26191;SDS011;13935;55.672;37.764;2022-10-16T00:13:29;11.68;;;6.93;;
26191;SDS011;13935;55.672;37.764;2022-10-16T00:14:54;16.50;;;7.60;;
26191;SDS011;13935;55.672;37.764;2022-10-16T00:16:17;14.65;;;7.43;;
26191;SDS011;13935;55.672;37.764;2022-10-16T00:17:42;16.17;;;7.25;;
26191;SDS011;13935;55.672;37.764;2022-10-16T00:19:05;12.55;;;7.07;;
26191;SDS011;13935;55.672;37.764;2022-10-16T00:20:27;14.43;;;7.22;;
26191;SDS011;13935;55.672;37.764;2022-10-16T00:22:10;12.30;;;7.20;;
26191;SDS011;13935;55.672;37.764;2022-10-16T00:23:43;14.13;;;6.85;;
26191;SDS011;13935;55.672;37.764;2022-10-16T00:25:06;13.70;;;7.40;;
26191;SDS011;13935;55.672;37.764;2022-10-16T00:26:30;15.27;;;6.95;;
26191;SDS011;13935;55.672;37.764;2022-10-16T00:27:57;13.77;;;7.85;;
26191;SDS011;13935;55.672;37.764;2022-10-16T00:29:19;14.02;;;7.50;;
26191;SDS011;13935;55.672;37.764;2022-10-16T00:30:41;13.43;;;7.15;;
26191;SDS011;13935;55.672;37.764;2022-10-16T00:32:03;16.70;;;7.70;;
26191;SDS011;13935;55.672;37.764;2022-10-16T00:33:26;16.42;;;7.82;;
26191;SDS011;13935;55.672;37.764;2022-10-16T00:34:48;11.52;;;6.90;;
26191;SDS011;13935;55.672;37.764;2022-10-16T00:36:11;18.33;;;8.20;;
26191;SDS011;13935;55.672;37.764;2022-10-16T00:37:36;15.20;;;7.28;;
26191;SDS011;13935;55.672;37.764;2022-10-16T00:38:58;13.45;;;6.90;;
26191;SDS011;13935;55.672;37.764;2022-10-16T00:40:24;15.73;;;7.20;;
26191;SDS011;13935;55.672;37.764;2022-10-16T00:41:48;13.68;;;7.55;;
26191;SDS011;13935;55.672;37.764;2022-10-16T00:43:55;15.07;;;7.75;;
26191;SDS011;13935;55.672;37.764;2022-10-16T00:45:01;14.95;;;7.03;;
26191;SDS011;13935;55.672;37.764;2022-10-16T00:46:27;11.43;;;7.03;;
26191;SDS011;13935;55.672;37.764;2022-10-16T00:48:03;12.23;;;7.18;;
26191;SDS011;13935;55.672;37.764;2022-10-16T00:49:25;15.02;;;7.75;;
26191;SDS011;13935;55.672;37.764;2022-10-16T00:50:49;12.95;;;7.35;;
26191;SDS011;13935;55.672;37.764;2022-10-16T00:52:12;14.05;;;7.55;;
26191;SDS011;13935;55.672;37.764;2022-10-16T00:53:36;12.70;;;7.10;;
26191;SDS011;13935;55.672;37.764;2022-10-16T00:54:58;13.25;;;7.43;;
26191;SDS011;13935;55.672;37.764;2022-10-16T00:56:24;13.88;;;7.82;;
26191;SDS011;13935;55.672;37.764;2022-10-16T00:57:46;15.02;;;7.85;;
26191;SDS011;13935;55.672;37.764;2022-10-16T00:59:20;12.50;;;7.60;;
26191;SDS011;13935;55.672;37.764;2022-10-16T01:00:47;14.05;;;8.07;;
26191;SDS011;13935;55.672;37.764;2022-10-16T01:02:13;14.15;;;7.70;;
26191;SDS011;13935;55.672;37.764;2022-10-16T01:03:37;13.60;;;7.72;;
26191;SDS011;13935;55.672;37.764;2022-10-16T01:04:59;18.27;;;8.07;;
26191;SDS011;13935;55.672;37.764;2022-10-16T01:06:28;14.88;;;7.80;;
26191;SDS011;13935;55.672;37.764;2022-10-16T01:08:09;13.32;;;7.55;;
26191;SDS011;13935;55.672;37.764;2022-10-16T01:11:17;14.82;;;8.27;;
26191;SDS011;13935;55.672;37.764;2022-10-16T01:12:59;16.27;;;8.05;;
26191;SDS011;13935;55.672;37.764;2022-10-16T01:14:35;18.73;;;8.20;;
26191;SDS011;13935;55.672;37.764;2022-10-16T01:16:06;13.57;;;7.60;;
26191;SDS011;13935;55.672;37.764;2022-10-16T01:17:34;15.50;;;8.00;;
26191;SDS011;13935;55.672;37.764;2022-10-16T01:19:02;15.43;;;8.43;;
26191;SDS011;13935;55.672;37.764;2022-10-16T01:21:01;15.30;;;7.55;;
26191;SDS011;13935;55.672;37.764;2022-10-16T01:22:33;18.10;;;8.38;;
26191;SDS011;13935;55.672;37.764;2022-10-16T01:27:27;18.40;;;9.45;;
26191;SDS011;13935;55.672;37.764;2022-10-16T01:30:26;17.35;;;8.65;;
26191;SDS011;13935;55.672;37.764;2022-10-16T01:32:00;14.93;;;8.35;;
26191;SDS011;13935;55.672;37.764;2022-10-16T01:33:35;15.10;;;8.90;;
26191;SDS011;13935;55.672;37.764;2022-10-16T01:35:03;13.15;;;8.43;;
26191;SDS011;13935;55.672;37.764;2022-10-16T01:36:34;19.95;;;9.25;;
26191;SDS011;13935;55.672;37.764;2022-10-16T01:39:59;15.35;;;8.32;;
26191;SDS011;13935;55.672;37.764;2022-10-16T01:41:25;20.17;;;9.48;;
26191;SDS011;13935;55.672;37.764;2022-10-16T01:42:56;17.58;;;8.63;;
26191;SDS011;13935;55.672;37.764;2022-10-16T01:44:24;17.98;;;9.18;;
26191;SDS011;13935;55.672;37.764;2022-10-16T01:45:52;14.85;;;8.93;;
26191;SDS011;13935;55.672;37.764;2022-10-16T01:47:15;16.15;;;8.77;;
26191;SDS011;13935;55.672;37.764;2022-10-16T01:48:40;16.95;;;8.85;;
26191;SDS011;13935;55.672;37.764;2022-10-16T01:50:03;15.50;;;8.82;;
26191;SDS011;13935;55.672;37.764;2022-10-16T01:51:27;15.45;;;9.35;;
26191;SDS011;13935;55.672;37.764;2022-10-16T01:52:51;16.80;;;8.73;;
26191;SDS011;13935;55.672;37.764;2022-10-16T01:54:19;18.20;;;9.05;;
26191;SDS011;13935;55.672;37.764;2022-10-16T01:55:46;18.58;;;9.50;;
26191;SDS011;13935;55.672;37.764;2022-10-16T01:57:16;15.25;;;8.75;;
26191;SDS011;13935;55.672;37.764;2022-10-16T01:58:51;20.67;;;8.77;;
26191;SDS011;13935;55.672;37.764;2022-10-16T02:00:17;17.20;;;8.68;;
26191;SDS011;13935;55.672;37.764;2022-10-16T02:01:45;17.27;;;8.88;;
26191;SDS011;13935;55.672;37.764;2022-10-16T02:03:11;15.82;;;8.57;;
26191;SDS011;13935;55.672;37.764;2022-10-16T02:04:47;15.35;;;8.32;;
26191;SDS011;13935;55.672;37.764;2022-10-16T02:06:14;19.17;;;9.05;;
26191;SDS011;13935;55.672;37.764;2022-10-16T02:07:36;17.73;;;9.43;;
26191;SDS011;13935;55.672;37.764;2022-10-16T02:08:58;14.60;;;8.65;;
26191;SDS011;13935;55.672;37.764;2022-10-16T02:10:21;13.05;;;8.25;;
26191;SDS011;13935;55.672;37.764;2022-10-16T02:11:47;13.30;;;8.32;;
26191;SDS011;13935;55.672;37.764;2022-10-16T02:13:17;16.13;;;8.70;;
26191;SDS011;13935;55.672;37.764;2022-10-16T02:14:46;15.00;;;8.32;;
26191;SDS011;13935;55.672;37.764;2022-10-16T02:16:10;14.77;;;8.75;;
26191;SDS011;13935;55.672;37.764;2022-10-16T02:17:35;14.73;;;9.55;;
26191;SDS011;13935;55.672;37.764;2022-10-16T02:18:58;14.15;;;8.40;;
26191;SDS011;13935;55.672;37.764;2022-10-16T02:20:22;19.48;;;9.65;;
26191;SDS011;13935;55.672;37.764;2022-10-16T02:21:50;18.90;;;9.57;;
26191;SDS011;13935;55.672;37.764;2022-10-16T02:23:19;14.95;;;8.90;;
26191;SDS011;13935;55.672;37.764;2022-10-16T02:24:56;14.50;;;8.65;;
26191;SDS011;13935;55.672;37.764;2022-10-16T02:26:28;16.10;;;9.10;;
26191;SDS011;13935;55.672;37.764;2022-10-16T02:28:19;17.25;;;9.45;;
26191;SDS011;13935;55.672;37.764;2022-10-16T02:29:47;15.02;;;8.13;;
26191;SDS011;13935;55.672;37.764;2022-10-16T02:31:15;16.80;;;9.55;;
26191;SDS011;13935;55.672;37.764;2022-10-16T02:32:47;13.52;;;8.55;;
26191;SDS011;13935;55.672;37.764;2022-10-16T02:34:10;13.88;;;8.73;;
26191;SDS011;13935;55.672;37.764;2022-10-16T02:35:34;18.67;;;9.90;;
26191;SDS011;13935;55.672;37.764;2022-10-16T02:36:57;20.45;;;10.13;;
26191;SDS011;13935;55.672;37.764;2022-10-16T02:38:22;15.02;;;9.70;;
26191;SDS011;13935;55.672;37.764;2022-10-16T02:39:47;16.67;;;9.07;;
26191;SDS011;13935;55.672;37.764;2022-10-16T02:41:10;18.27;;;9.55;;
26191;SDS011;13935;55.672;37.764;2022-10-16T02:42:37;18.73;;;8.93;;
26191;SDS011;13935;55.672;37.764;2022-10-16T02:44:01;16.80;;;9.23;;
26191;SDS011;13935;55.672;37.764;2022-10-16T02:45:24;20.70;;;9.52;;
26191;SDS011;13935;55.672;37.764;2022-10-16T02:46:46;16.73;;;8.93;;
26191;SDS011;13935;55.672;37.764;2022-10-16T02:48:09;16.17;;;9.27;;
26191;SDS011;13935;55.672;37.764;2022-10-16T02:49:31;15.30;;;9.73;;
26191;SDS011;13935;55.672;37.764;2022-10-16T02:50:53;17.00;;;10.65;;
26191;SDS011;13935;55.672;37.764;2022-10-16T02:52:15;18.35;;;10.18;;
26191;SDS011;13935;55.672;37.764;2022-10-16T02:53:37;22.73;;;10.27;;
26191;SDS011;13935;55.672;37.764;2022-10-16T02:54:59;15.73;;;9.32;;
26191;SDS011;13935;55.672;37.764;2022-10-16T02:56:22;17.23;;;10.00;;
26191;SDS011;13935;55.672;37.764;2022-10-16T02:57:48;17.27;;;9.10;;
26191;SDS011;13935;55.672;37.764;2022-10-16T02:59:11;17.38;;;10.02;;
26191;SDS011;13935;55.672;37.764;2022-10-16T03:00:33;15.40;;;9.43;;
26191;SDS011;13935;55.672;37.764;2022-10-16T03:01:55;17.17;;;10.32;;
26191;SDS011;13935;55.672;37.764;2022-10-16T03:03:18;16.73;;;10.05;;
26191;SDS011;13935;55.672;37.764;2022-10-16T03:04:41;19.17;;;10.32;;
26191;SDS011;13935;55.672;37.764;2022-10-16T03:06:04;18.05;;;9.85;;
26191;SDS011;13935;55.672;37.764;2022-10-16T03:07:30;15.85;;;10.60;;
26191;SDS011;13935;55.672;37.764;2022-10-16T03:08:54;15.32;;;9.40;;
26191;SDS011;13935;55.672;37.764;2022-10-16T03:10:19;19.17;;;9.23;;
26191;SDS011;13935;55.672;37.764;2022-10-16T03:11:41;22.77;;;10.27;;
26191;SDS011;13935;55.672;37.764;2022-10-16T03:13:03;15.40;;;9.40;;
26191;SDS011;13935;55.672;37.764;2022-10-16T03:14:26;16.55;;;9.75;;
26191;SDS011;13935;55.672;37.764;2022-10-16T03:15:53;17.23;;;9.95;;
26191;SDS011;13935;55.672;37.764;2022-10-16T03:17:17;15.02;;;9.80;;
26191;SDS011;13935;55.672;37.764;2022-10-16T03:18:40;17.05;;;9.88;;
26191;SDS011;13935;55.672;37.764;2022-10-16T03:20:04;20.83;;;10.50;;
26191;SDS011;13935;55.672;37.764;2022-10-16T03:21:27;15.88;;;9.80;;
26191;SDS011;13935;55.672;37.764;2022-10-16T03:22:50;17.75;;;9.05;;
26191;SDS011;13935;55.672;37.764;2022-10-16T03:24:12;16.08;;;10.15;;
26191;SDS011;13935;55.672;37.764;2022-10-16T03:25:34;19.58;;;10.73;;
26191;SDS011;13935;55.672;37.764;2022-10-16T03:26:56;18.95;;;11.10;;
26191;SDS011;13935;55.672;37.764;2022-10-16T03:28:19;18.05;;;9.90;;
26191;SDS011;13935;55.672;37.764;2022-10-16T03:29:41;18.55;;;10.07;;
26191;SDS011;13935;55.672;37.764;2022-10-16T03:31:03;14.27;;;9.48;;
26191;SDS011;13935;55.672;37.764;2022-10-16T03:32:25;17.30;;;9.27;;
26191;SDS011;13935;55.672;37.764;2022-10-16T03:33:48;17.00;;;10.25;;
26191;SDS011;13935;55.672;37.764;2022-10-16T03:35:11;17.10;;;10.10;;
26191;SDS011;13935;55.672;37.764;2022-10-16T03:36:33;18.15;;;9.57;;
26191;SDS011;13935;55.672;37.764;2022-10-16T03:37:58;17.70;;;10.15;;
26191;SDS011;13935;55.672;37.764;2022-10-16T03:39:23;18.27;;;10.05;;
26191;SDS011;13935;55.672;37.764;2022-10-16T03:40:55;15.02;;;9.50;;
26191;SDS011;13935;55.672;37.764;2022-10-16T03:42:17;19.23;;;10.15;;
26191;SDS011;13935;55.672;37.764;2022-10-16T03:43:40;18.33;;;9.95;;
26191;SDS011;13935;55.672;37.764;2022-10-16T03:45:03;17.63;;;10.15;;
26191;SDS011;13935;55.672;37.764;2022-10-16T03:46:26;19.27;;;10.57;;
26191;SDS011;13935;55.672;37.764;2022-10-16T03:47:49;18.75;;;10.05;;
26191;SDS011;13935;55.672;37.764;2022-10-16T03:49:11;21.67;;;9.77;;
26191;SDS011;13935;55.672;37.764;2022-10-16T03:50:33;19.25;;;10.27;;
26191;SDS011;13935;55.672;37.764;2022-10-16T03:51:55;19.98;;;10.80;;
26191;SDS011;13935;55.672;37.764;2022-10-16T03:53:17;21.65;;;10.43;;
26191;SDS011;13935;55.672;37.764;2022-10-16T03:54:40;16.45;;;9.95;;
26191;SDS011;13935;55.672;37.764;2022-10-16T03:56:05;17.70;;;9.80;;
26191;SDS011;13935;55.672;37.764;2022-10-16T03:57:27;20.20;;;10.70;;
26191;SDS011;13935;55.672;37.764;2022-10-16T03:58:51;21.52;;;10.13;;
26191;SDS011;13935;55.672;37.764;2022-10-16T04:00:13;18.92;;;10.23;;
26191;SDS011;13935;55.672;37.764;2022-10-16T04:01:38;19.35;;;10.23;;
26191;SDS011;13935;55.672;37.764;2022-10-16T04:03:00;19.73;;;10.82;;
26191;SDS011;13935;55.672;37.764;2022-10-16T04:04:22;21.15;;;10.00;;
26191;SDS011;13935;55.672;37.764;2022-10-16T04:05:47;18.95;;;10.50;;
26191;SDS011;13935;55.672;37.764;2022-10-16T04:07:09;23.50;;;10.70;;
26191;SDS011;13935;55.672;37.764;2022-10-16T04:08:31;19.13;;;10.65;;
26191;SDS011;13935;55.672;37.764;2022-10-16T04:09:57;19.88;;;11.00;;
26191;SDS011;13935;55.672;37.764;2022-10-16T04:11:20;19.35;;;10.82;;
26191;SDS011;13935;55.672;37.764;2022-10-16T04:12:42;20.20;;;10.93;;
26191;SDS011;13935;55.672;37.764;2022-10-16T04:14:05;19.25;;;10.93;;
26191;SDS011;13935;55.672;37.764;2022-10-16T04:15:28;18.95;;;11.55;;
26191;SDS011;13935;55.672;37.764;2022-10-16T04:16:51;24.00;;;11.90;;
26191;SDS011;13935;55.672;37.764;2022-10-16T04:18:13;24.30;;;11.43;;
26191;SDS011;13935;55.672;37.764;2022-10-16T04:19:35;22.25;;;10.90;;
26191;SDS011;13935;55.672;37.764;2022-10-16T04:21:01;19.02;;;11.57;;
26191;SDS011;13935;55.672;37.764;2022-10-16T04:22:24;16.70;;;10.77;;
26191;SDS011;13935;55.672;37.764;2022-10-16T04:23:49;20.70;;;10.85;;
26191;SDS011;13935;55.672;37.764;2022-10-16T04:25:11;26.23;;;12.07;;
26191;SDS011;13935;55.672;37.764;2022-10-16T04:26:33;21.40;;;11.65;;
26191;SDS011;13935;55.672;37.764;2022-10-16T04:27:55;21.55;;;12.02;;
26191;SDS011;13935;55.672;37.764;2022-10-16T04:29:18;19.98;;;12.45;;
26191;SDS011;13935;55.672;37.764;2022-10-16T04:30:40;19.25;;;12.88;;
26191;SDS011;13935;55.672;37.764;2022-10-16T04:32:02;27.52;;;12.60;;
26191;SDS011;13935;55.672;37.764;2022-10-16T04:33:24;26.80;;;13.15;;
26191;SDS011;13935;55.672;37.764;2022-10-16T04:34:46;22.95;;;14.35;;
26191;SDS011;13935;55.672;37.764;2022-10-16T04:36:08;22.88;;;12.95;;
26191;SDS011;13935;55.672;37.764;2022-10-16T04:37:30;22.35;;;12.38;;
26191;SDS011;13935;55.672;37.764;2022-10-16T04:38:52;20.13;;;12.40;;
26191;SDS011;13935;55.672;37.764;2022-10-16T04:40:15;26.55;;;12.60;;
26191;SDS011;13935;55.672;37.764;2022-10-16T04:41:37;23.05;;;12.25;;
26191;SDS011;13935;55.672;37.764;2022-10-16T04:42:59;20.67;;;11.38;;
26191;SDS011;13935;55.672;37.764;2022-10-16T04:44:21;21.98;;;12.45;;
26191;SDS011;13935;55.672;37.764;2022-10-16T04:45:45;24.98;;;11.80;;
26191;SDS011;13935;55.672;37.764;2022-10-16T04:47:07;26.35;;;12.25;;
26191;SDS011;13935;55.672;37.764;2022-10-16T04:48:31;25.75;;;11.18;;
26191;SDS011;13935;55.672;37.764;2022-10-16T04:49:53;22.45;;;11.32;;
26191;SDS011;13935;55.672;37.764;2022-10-16T04:51:15;19.30;;;10.18;;
26191;SDS011;13935;55.672;37.764;2022-10-16T04:52:38;15.75;;;10.40;;
26191;SDS011;13935;55.672;37.764;2022-10-16T04:54:04;20.33;;;10.52;;
26191;SDS011;13935;55.672;37.764;2022-10-16T04:55:26;21.60;;;10.35;;
26191;SDS011;13935;55.672;37.764;2022-10-16T04:56:52;22.40;;;10.90;;
26191;SDS011;13935;55.672;37.764;2022-10-16T04:58:14;22.45;;;11.40;;
26191;SDS011;13935;55.672;37.764;2022-10-16T04:59:36;19.23;;;10.93;;
26191;SDS011;13935;55.672;37.764;2022-10-16T05:00:58;18.80;;;10.43;;
26191;SDS011;13935;55.672;37.764;2022-10-16T05:02:22;19.58;;;10.25;;
26191;SDS011;13935;55.672;37.764;2022-10-16T05:03:45;17.90;;;10.20;;
26191;SDS011;13935;55.672;37.764;2022-10-16T05:05:09;18.27;;;10.23;;
26191;SDS011;13935;55.672;37.764;2022-10-16T05:06:32;20.30;;;10.70;;
26191;SDS011;13935;55.672;37.764;2022-10-16T05:07:54;22.05;;;10.77;;
26191;SDS011;13935;55.672;37.764;2022-10-16T05:09:16;18.20;;;10.48;;
26191;SDS011;13935;55.672;37.764;2022-10-16T05:10:39;18.10;;;10.45;;
26191;SDS011;13935;55.672;37.764;2022-10-16T05:12:02;17.42;;;10.40;;
26191;SDS011;13935;55.672;37.764;2022-10-16T05:13:25;16.33;;;9.52;;
26191;SDS011;13935;55.672;37.764;2022-10-16T05:14:48;21.83;;;10.30;;
26191;SDS011;13935;55.672;37.764;2022-10-16T05:16:12;15.48;;;9.18;;
26191;SDS011;13935;55.672;37.764;2022-10-16T05:17:35;19.45;;;10.77;;
26191;SDS011;13935;55.672;37.764;2022-10-16T05:19:05;18.77;;;10.70;;
26191;SDS011;13935;55.672;37.764;2022-10-16T05:20:47;20.80;;;11.75;;
26191;SDS011;13935;55.672;37.764;2022-10-16T05:22:09;23.52;;;10.38;;
26191;SDS011;13935;55.672;37.764;2022-10-16T05:23:32;18.00;;;10.00;;
26191;SDS011;13935;55.672;37.764;2022-10-16T05:24:55;22.48;;;9.82;;
26191;SDS011;13935;55.672;37.764;2022-10-16T05:26:17;22.05;;;10.75;;
26191;SDS011;13935;55.672;37.764;2022-10-16T05:27:39;20.20;;;9.88;;
26191;SDS011;13935;55.672;37.764;2022-10-16T05:29:01;15.15;;;10.13;;
26191;SDS011;13935;55.672;37.764;2022-10-16T05:30:24;23.17;;;10.18;;
26191;SDS011;13935;55.672;37.764;2022-10-16T05:31:49;23.00;;;10.50;;
26191;SDS011;13935;55.672;37.764;2022-10-16T05:33:12;21.23;;;11.25;;
26191;SDS011;13935;55.672;37.764;2022-10-16T05:34:34;23.88;;;11.02;;
26191;SDS011;13935;55.672;37.764;2022-10-16T05:36:00;24.10;;;13.68;;
26191;SDS011;13935;55.672;37.764;2022-10-16T05:37:26;22.85;;;11.38;;
26191;SDS011;13935;55.672;37.764;2022-10-16T05:38:50;20.85;;;11.50;;
26191;SDS011;13935;55.672;37.764;2022-10-16T05:40:12;28.80;;;10.77;;
26191;SDS011;13935;55.672;37.764;2022-10-16T05:41:36;21.63;;;11.10;;
26191;SDS011;13935;55.672;37.764;2022-10-16T05:42:59;19.50;;;11.07;;
26191;SDS011;13935;55.672;37.764;2022-10-16T05:44:21;18.65;;;10.13;;
26191;SDS011;13935;55.672;37.764;2022-10-16T05:45:43;19.35;;;10.93;;
26191;SDS011;13935;55.672;37.764;2022-10-16T05:47:05;19.55;;;11.02;;
26191;SDS011;13935;55.672;37.764;2022-10-16T05:48:28;20.65;;;11.10;;
26191;SDS011;13935;55.672;37.764;2022-10-16T05:49:51;22.48;;;10.68;;
26191;SDS011;13935;55.672;37.764;2022-10-16T05:51:13;24.75;;;11.50;;
26191;SDS011;13935;55.672;37.764;2022-10-16T05:52:36;20.42;;;11.02;;
26191;SDS011;13935;55.672;37.764;2022-10-16T05:53:58;20.95;;;10.48;;
26191;SDS011;13935;55.672;37.764;2022-10-16T05:55:22;31.60;;;10.75;;
26191;SDS011;13935;55.672;37.764;2022-10-16T05:56:44;19.98;;;10.55;;
26191;SDS011;13935;55.672;37.764;2022-10-16T05:58:08;20.45;;;11.25;;
26191;SDS011;13935;55.672;37.764;2022-10-16T05:59:31;23.85;;;10.73;;
26191;SDS011;13935;55.672;37.764;2022-10-16T06:00:56;20.83;;;10.70;;
26191;SDS011;13935;55.672;37.764;2022-10-16T06:02:20;19.60;;;10.50;;
26191;SDS011;13935;55.672;37.764;2022-10-16T06:03:43;24.50;;;11.02;;
26191;SDS011;13935;55.672;37.764;2022-10-16T06:05:05;23.98;;;11.35;;
26191;SDS011;13935;55.672;37.764;2022-10-16T06:06:28;21.98;;;11.55;;
26191;SDS011;13935;55.672;37.764;2022-10-16T06:07:52;25.17;;;12.10;;
26191;SDS011;13935;55.672;37.764;2022-10-16T06:09:14;22.27;;;11.13;;
26191;SDS011;13935;55.672;37.764;2022-10-16T06:10:38;26.60;;;11.50;;
26191;SDS011;13935;55.672;37.764;2022-10-16T06:12:00;20.38;;;11.50;;
26191;SDS011;13935;55.672;37.764;2022-10-16T06:13:22;18.42;;;10.57;;
26191;SDS011;13935;55.672;37.764;2022-10-16T06:14:44;24.13;;;11.07;;
26191;SDS011;13935;55.672;37.764;2022-10-16T06:16:09;20.77;;;11.20;;
26191;SDS011;13935;55.672;37.764;2022-10-16T06:17:33;20.60;;;11.15;;
26191;SDS011;13935;55.672;37.764;2022-10-16T06:18:55;20.83;;;10.75;;
26191;SDS011;13935;55.672;37.764;2022-10-16T06:20:17;23.80;;;12.20;;
26191;SDS011;13935;55.672;37.764;2022-10-16T06:21:39;22.27;;;11.30;;
26191;SDS011;13935;55.672;37.764;2022-10-16T06:23:02;21.02;;;11.30;;
26191;SDS011;13935;55.672;37.764;2022-10-16T06:24:25;21.05;;;11.18;;
26191;SDS011;13935;55.672;37.764;2022-10-16T06:25:47;20.25;;;10.63;;
26191;SDS011;13935;55.672;37.764;2022-10-16T06:27:12;17.95;;;10.80;;
26191;SDS011;13935;55.672;37.764;2022-10-16T06:28:34;21.90;;;11.77;;
26191;SDS011;13935;55.672;37.764;2022-10-16T06:29:56;20.30;;;11.10;;
26191;SDS011;13935;55.672;37.764;2022-10-16T06:31:19;21.42;;;11.43;;
26191;SDS011;13935;55.672;37.764;2022-10-16T06:32:41;21.10;;;11.32;;
26191;SDS011;13935;55.672;37.764;2022-10-16T06:34:03;25.02;;;12.27;;
26191;SDS011;13935;55.672;37.764;2022-10-16T06:35:27;25.60;;;11.38;;
26191;SDS011;13935;55.672;37.764;2022-10-16T06:36:50;19.20;;;11.13;;
26191;SDS011;13935;55.672;37.764;2022-10-16T06:38:13;19.80;;;11.35;;
26191;SDS011;13935;55.672;37.764;2022-10-16T06:39:34;21.95;;;11.70;;
26191;SDS011;13935;55.672;37.764;2022-10-16T06:40:57;24.35;;;11.43;;
26191;SDS011;13935;55.672;37.764;2022-10-16T06:42:19;22.70;;;10.50;;
26191;SDS011;13935;55.672;37.764;2022-10-16T06:43:41;20.15;;;11.27;;
26191;SDS011;13935;55.672;37.764;2022-10-16T06:45:04;20.85;;;10.85;;
26191;SDS011;13935;55.672;37.764;2022-10-16T06:46:26;19.00;;;10.18;;
26191;SDS011;13935;55.672;37.764;2022-10-16T06:47:50;19.75;;;9.95;;
26191;SDS011;13935;55.672;37.764;2022-10-16T06:49:15;21.92;;;10.52;;
26191;SDS011;13935;55.672;37.764;2022-10-16T06:50:43;19.67;;;10.27;;
26191;SDS011;13935;55.672;37.764;2022-10-16T06:52:04;19.38;;;10.23;;
26191;SDS011;13935;55.672;37.764;2022-10-16T06:53:29;24.83;;;10.15;;
26191;SDS011;13935;55.672;37.764;2022-10-16T06:55:04;20.67;;;10.23;;
26191;SDS011;13935;55.672;37.764;2022-10-16T06:56:27;20.77;;;10.63;;
26191;SDS011;13935;55.672;37.764;2022-10-16T06:57:52;18.77;;;10.30;;
26191;SDS011;13935;55.672;37.764;2022-10-16T06:59:14;18.92;;;10.15;;
26191;SDS011;13935;55.672;37.764;2022-10-16T07:00:36;19.08;;;10.05;;
26191;SDS011;13935;55.672;37.764;2022-10-16T07:01:58;21.35;;;10.00;;
26191;SDS011;13935;55.672;37.764;2022-10-16T07:03:20;20.60;;;9.70;;
26191;SDS011;13935;55.672;37.764;2022-10-16T07:04:42;17.98;;;9.75;;
26191;SDS011;13935;55.672;37.764;2022-10-16T07:06:06;23.80;;;10.10;;
26191;SDS011;13935;55.672;37.764;2022-10-16T07:07:29;19.25;;;9.75;;
26191;SDS011;13935;55.672;37.764;2022-10-16T07:08:51;23.20;;;13.05;;
26191;SDS011;13935;55.672;37.764;2022-10-16T07:10:14;17.10;;;9.90;;
26191;SDS011;13935;55.672;37.764;2022-10-16T07:11:36;19.10;;;10.23;;
26191;SDS011;13935;55.672;37.764;2022-10-16T07:13:00;15.13;;;9.57;;
26191;SDS011;13935;55.672;37.764;2022-10-16T07:14:22;21.65;;;10.52;;
26191;SDS011;13935;55.672;37.764;2022-10-16T07:15:45;21.77;;;12.57;;
26191;SDS011;13935;55.672;37.764;2022-10-16T07:17:07;21.17;;;12.52;;
26191;SDS011;13935;55.672;37.764;2022-10-16T07:18:29;23.48;;;11.98;;
26191;SDS011;13935;55.672;37.764;2022-10-16T07:19:53;18.55;;;9.70;;
26191;SDS011;13935;55.672;37.764;2022-10-16T07:21:18;21.13;;;9.23;;
26191;SDS011;13935;55.672;37.764;2022-10-16T07:22:42;19.08;;;8.88;;
26191;SDS011;13935;55.672;37.764;2022-10-16T07:24:10;19.23;;;9.35;;
26191;SDS011;13935;55.672;37.764;2022-10-16T07:25:34;15.30;;;9.18;;
26191;SDS011;13935;55.672;37.764;2022-10-16T07:26:56;17.50;;;8.70;;
26191;SDS011;13935;55.672;37.764;2022-10-16T07:28:18;17.98;;;8.85;;
26191;SDS011;13935;55.672;37.764;2022-10-16T07:29:40;17.60;;;9.00;;
26191;SDS011;13935;55.672;37.764;2022-10-16T07:31:06;15.18;;;8.18;;
26191;SDS011;13935;55.672;37.764;2022-10-16T07:32:29;16.52;;;7.63;;
26191;SDS011;13935;55.672;37.764;2022-10-16T07:33:53;18.15;;;8.90;;
26191;SDS011;13935;55.672;37.764;2022-10-16T07:35:15;16.38;;;8.13;;
26191;SDS011;13935;55.672;37.764;2022-10-16T07:36:37;13.50;;;8.48;;
26191;SDS011;13935;55.672;37.764;2022-10-16T07:37:59;20.48;;;8.80;;
26191;SDS011;13935;55.672;37.764;2022-10-16T07:39:21;18.45;;;8.70;;
26191;SDS011;13935;55.672;37.764;2022-10-16T07:40:43;17.38;;;8.77;;
26191;SDS011;13935;55.672;37.764;2022-10-16T07:42:07;14.25;;;8.02;;
26191;SDS011;13935;55.672;37.764;2022-10-16T07:43:29;22.30;;;8.38;;
26191;SDS011;13935;55.672;37.764;2022-10-16T07:44:51;15.40;;;7.95;;
26191;SDS011;13935;55.672;37.764;2022-10-16T07:46:13;16.90;;;8.40;;
26191;SDS011;13935;55.672;37.764;2022-10-16T07:47:36;19.70;;;9.25;;
26191;SDS011;13935;55.672;37.764;2022-10-16T07:48:58;14.18;;;8.07;;
26191;SDS011;13935;55.672;37.764;2022-10-16T07:50:20;12.65;;;7.75;;
26191;SDS011;13935;55.672;37.764;2022-10-16T07:51:42;15.30;;;8.48;;
26191;SDS011;13935;55.672;37.764;2022-10-16T07:53:04;19.08;;;8.98;;
26191;SDS011;13935;55.672;37.764;2022-10-16T07:54:25;16.42;;;7.88;;
26191;SDS011;13935;55.672;37.764;2022-10-16T07:55:47;16.48;;;8.18;;
26191;SDS011;13935;55.672;37.764;2022-10-16T07:57:09;16.25;;;8.40;;
26191;SDS011;13935;55.672;37.764;2022-10-16T07:58:32;15.60;;;7.88;;
26191;SDS011;13935;55.672;37.764;2022-10-16T07:59:55;17.40;;;8.50;;
26191;SDS011;13935;55.672;37.764;2022-10-16T08:01:17;12.95;;;7.80;;
26191;SDS011;13935;55.672;37.764;2022-10-16T08:02:40;16.33;;;7.75;;
26191;SDS011;13935;55.672;37.764;2022-10-16T08:04:02;14.40;;;8.50;;
26191;SDS011;13935;55.672;37.764;2022-10-16T08:05:09;15.93;;;9.40;;
26191;SDS011;13935;55.672;37.764;2022-10-16T08:06:12;17.15;;;10.25;;
26191;SDS011;13935;55.672;37.764;2022-10-16T08:07:14;19.90;;;9.43;;
26191;SDS011;13935;55.672;37.764;2022-10-16T08:08:16;16.48;;;10.10;;
26191;SDS011;13935;55.672;37.764;2022-10-16T08:09:19;14.05;;;10.25;;
26191;SDS011;13935;55.672;37.764;2022-10-16T08:10:21;14.50;;;9.85;;
26191;SDS011;13935;55.672;37.764;2022-10-16T08:11:25;19.23;;;10.38;;
26191;SDS011;13935;55.672;37.764;2022-10-16T08:12:28;17.13;;;11.20;;
26191;SDS011;13935;55.672;37.764;2022-10-16T08:13:32;18.13;;;10.98;;
26191;SDS011;13935;55.672;37.764;2022-10-16T08:14:34;17.42;;;10.93;;
26191;SDS011;13935;55.672;37.764;2022-10-16T08:15:36;20.10;;;10.90;;